createdAt,value
2023-03-22T00:00:17.792Z,100.00
2023-03-22T00:02:46.419Z,100.00
2023-03-22T00:05:14.711Z,100.00
2023-03-22T00:08:05.791Z,100.00
2023-03-22T00:10:36.992Z,100.00
2023-03-22T00:13:06.594Z,100.00
2023-03-22T00:15:34.967Z,100.00
2023-03-22T00:18:05.806Z,100.00
2023-03-22T00:20:38.549Z,100.00
2023-03-22T00:23:09.178Z,100.00
2023-03-22T00:25:37.960Z,100.00
2023-03-22T00:28:06.132Z,100.00
2023-03-22T00:30:34.323Z,100.00
2023-03-22T00:33:02.728Z,100.00
2023-03-22T00:35:31.647Z,100.00
2023-03-22T00:38:06.187Z,100.00
2023-03-22T00:40:35.378Z,100.00
2023-03-22T00:43:03.548Z,100.00
2023-03-22T00:45:32.247Z,100.00
2023-03-22T00:48:01.173Z,100.00
2023-03-22T00:50:30.354Z,100.00
2023-03-22T00:52:58.719Z,100.00
2023-03-22T00:55:28.339Z,100.00
2023-03-22T00:57:58.388Z,100.00
2023-03-22T01:00:27.298Z,100.00
2023-03-22T01:03:00.080Z,100.00
2023-03-22T01:05:28.590Z,100.00
2023-03-22T01:07:57.269Z,100.00
2023-03-22T01:10:30.493Z,100.00
2023-03-22T01:12:59.083Z,100.00
2023-03-22T01:15:27.188Z,100.00
2023-03-22T01:17:55.421Z,100.00
2023-03-22T01:20:24.012Z,100.00
2023-03-22T01:22:52.194Z,100.00
2023-03-22T01:25:22.953Z,100.00
2023-03-22T01:27:51.124Z,100.00
2023-03-22T01:30:19.333Z,100.00
2023-03-22T01:32:48.533Z,100.00
2023-03-22T01:35:18.199Z,100.00
2023-03-22T01:37:47.451Z,100.00
2023-03-22T01:40:17.163Z,100.00
2023-03-22T01:42:45.564Z,100.00
2023-03-22T01:45:35.720Z,100.00
2023-03-22T01:48:10.198Z,100.00
2023-03-22T01:50:39.465Z,100.00
2023-03-22T01:53:08.789Z,100.00
2023-03-22T01:55:37.524Z,100.00
2023-03-22T01:58:18.170Z,100.00
2023-03-22T02:00:57.080Z,100.00
2023-03-22T02:03:55.936Z,100.00
2023-03-22T02:06:24.488Z,100.00
2023-03-22T02:08:58.601Z,100.00
2023-03-22T02:11:51.345Z,100.00
2023-03-22T02:14:40.617Z,100.00
2023-03-22T02:17:54.400Z,100.00
2023-03-22T02:21:01.925Z,100.00
2023-03-22T02:24:01.143Z,100.00
2023-03-22T02:27:17.739Z,100.00
2023-03-22T02:29:54.320Z,100.00
2023-03-22T02:32:47.713Z,100.00
2023-03-22T02:35:47.083Z,100.00
2023-03-22T02:38:43.337Z,100.00
2023-03-22T02:41:24.258Z,100.00
2023-03-22T02:44:21.416Z,100.00
2023-03-22T02:47:01.312Z,100.00
2023-03-22T02:49:32.889Z,100.00
2023-03-22T02:52:07.331Z,100.00
2023-03-22T02:54:44.068Z,100.00
2023-03-22T02:57:22.490Z,100.00
2023-03-22T02:59:50.766Z,100.00
2023-03-22T03:02:19.667Z,100.00
2023-03-22T03:04:50.003Z,100.00
2023-03-22T03:07:23.530Z,100.00
2023-03-22T03:09:51.713Z,100.00
2023-03-22T03:12:22.265Z,100.00
2023-03-22T03:14:52.702Z,100.00
2023-03-22T03:17:30.831Z,100.00
2023-03-22T03:20:19.060Z,100.00
2023-03-22T03:22:53.005Z,100.00
2023-03-22T03:25:31.554Z,100.00
2023-03-22T03:28:06.509Z,100.00
2023-03-22T03:30:56.393Z,100.00
2023-03-22T03:33:26.094Z,100.00
2023-03-22T03:36:00.140Z,100.00
2023-03-22T03:38:32.655Z,100.00
2023-03-22T03:41:04.013Z,100.00
2023-03-22T03:43:32.370Z,100.00
2023-03-22T03:46:01.347Z,100.00
2023-03-22T03:48:32.228Z,100.00
2023-03-22T03:51:00.520Z,100.00
2023-03-22T03:53:30.143Z,100.00
2023-03-22T03:55:58.422Z,100.00
2023-03-22T03:58:27.405Z,100.00
2023-03-22T04:00:55.836Z,100.00
2023-03-22T04:03:32.233Z,100.00
2023-03-22T04:06:12.611Z,100.00
2023-03-22T04:08:45.619Z,100.00
2023-03-22T04:11:18.112Z,100.00
2023-03-22T04:16:09.151Z,100.00
2023-03-22T04:18:41.634Z,100.00
2023-03-22T04:21:12.244Z,100.00
2023-03-22T04:23:47.143Z,100.00
2023-03-22T04:26:15.857Z,100.00
2023-03-22T04:29:04.762Z,100.00
2023-03-22T04:31:35.708Z,100.00
2023-03-22T04:34:15.706Z,100.00
2023-03-22T04:37:04.351Z,100.00
2023-03-22T04:39:39.711Z,100.00
2023-03-22T04:42:28.146Z,100.00
2023-03-22T04:45:15.639Z,100.00
2023-03-22T04:47:46.328Z,100.00
2023-03-22T04:50:17.135Z,100.00
2023-03-22T04:52:50.160Z,100.00
2023-03-22T04:55:21.018Z,100.00
2023-03-22T04:57:51.236Z,100.00
2023-03-22T05:00:21.903Z,100.00
2023-03-22T05:02:52.347Z,100.00
2023-03-22T05:05:50.841Z,100.00
2023-03-22T05:08:20.987Z,100.00
2023-03-22T05:10:49.651Z,100.00
2023-03-22T05:13:19.379Z,100.00
2023-03-22T05:15:49.744Z,100.00
2023-03-22T05:18:26.270Z,100.00
2023-03-22T05:20:55.778Z,100.00
2023-03-22T05:23:24.894Z,100.00
2023-03-22T05:25:58.271Z,100.00
2023-03-22T05:28:29.908Z,100.00
2023-03-22T05:31:18.502Z,100.00
2023-03-22T05:34:04.027Z,100.00
2023-03-22T05:36:36.571Z,100.00
2023-03-22T05:39:18.106Z,100.00
2023-03-22T05:41:47.206Z,100.00
2023-03-22T05:44:15.583Z,100.00
2023-03-22T05:46:51.955Z,100.00
2023-03-22T05:49:31.841Z,100.00
2023-03-22T05:52:05.975Z,100.00
2023-03-22T05:55:01.805Z,100.00
2023-03-22T05:57:30.281Z,100.00
2023-03-22T06:00:01.844Z,100.00
2023-03-22T06:02:41.588Z,100.00
2023-03-22T06:05:17.049Z,100.00
2023-03-22T06:07:45.521Z,100.00
2023-03-22T06:10:18.220Z,100.00
2023-03-22T06:12:55.056Z,100.00
2023-03-22T06:15:28.272Z,100.00
2023-03-22T06:18:09.198Z,100.00
2023-03-22T06:20:41.998Z,100.00
2023-03-22T06:23:22.299Z,100.00
2023-03-22T06:25:50.573Z,100.00
2023-03-22T06:28:20.633Z,100.00
2023-03-22T06:30:54.284Z,100.00
2023-03-22T06:33:45.635Z,100.00
2023-03-22T06:36:35.470Z,100.00
2023-03-22T06:39:09.996Z,100.00
2023-03-22T06:41:39.217Z,100.00
2023-03-22T06:44:07.469Z,100.00
2023-03-22T06:54:16.916Z,100.00
2023-03-22T06:56:45.299Z,100.00
2023-03-22T06:59:13.564Z,100.00
2023-03-22T07:01:42.197Z,100.00
2023-03-22T07:04:13.613Z,100.00
2023-03-22T07:06:44.777Z,100.00
2023-03-22T07:09:13.089Z,100.00
2023-03-22T07:11:42.387Z,100.00
2023-03-22T07:14:11.366Z,100.00
2023-03-22T07:16:51.961Z,100.00
2023-03-22T07:19:22.017Z,100.00
2023-03-22T07:21:50.912Z,100.00
2023-03-22T07:24:19.088Z,100.00
2023-03-22T07:27:07.933Z,100.00
2023-03-22T07:29:42.822Z,100.00
2023-03-22T07:32:12.399Z,100.00
2023-03-22T07:34:54.490Z,100.00
2023-03-22T07:37:22.871Z,100.00
2023-03-22T07:39:56.267Z,100.00
2023-03-22T07:42:26.344Z,100.00
2023-03-22T07:45:24.006Z,100.00
2023-03-22T07:48:39.169Z,100.00
2023-03-22T07:51:38.034Z,100.00
2023-03-22T07:54:07.845Z,100.00
2023-03-22T07:56:37.170Z,100.00
2023-03-22T07:59:06.767Z,100.00
2023-03-22T08:01:35.334Z,100.00
2023-03-22T08:04:10.633Z,100.00
2023-03-22T08:06:51.505Z,100.00
2023-03-22T08:09:19.823Z,100.00
2023-03-22T08:11:52.231Z,100.00
2023-03-22T08:14:30.600Z,100.00
2023-03-22T08:17:05.750Z,100.00
2023-03-22T08:19:34.489Z,100.00
2023-03-22T08:22:03.450Z,100.00
2023-03-22T08:24:54.573Z,100.00
2023-03-22T08:27:29.154Z,100.00
2023-03-22T08:29:58.843Z,100.00
2023-03-22T08:32:26.809Z,100.00
2023-03-22T08:34:55.428Z,100.00
2023-03-22T08:37:24.478Z,100.00
2023-03-22T08:39:52.788Z,100.00
2023-03-22T08:42:23.578Z,100.00
2023-03-22T08:44:57.239Z,100.00
2023-03-22T08:47:30.728Z,100.00
2023-03-22T08:50:01.436Z,98.59
2023-03-22T08:52:37.937Z,97.75
2023-03-22T08:55:10.872Z,98.22
2023-03-22T08:58:03.975Z,96.16
2023-03-22T09:00:51.884Z,94.22
2023-03-22T09:03:26.466Z,93.23
2023-03-22T09:05:54.691Z,92.60
2023-03-22T09:08:24.011Z,93.02
2023-03-22T09:10:57.821Z,93.07
2023-03-22T09:13:26.166Z,92.50
2023-03-22T09:16:02.668Z,92.78
2023-03-22T09:18:33.907Z,92.08
2023-03-22T09:21:05.931Z,91.87
2023-03-22T09:23:42.073Z,92.15
2023-03-22T09:26:11.268Z,92.47
2023-03-22T09:28:39.583Z,91.18
2023-03-22T09:31:14.096Z,89.35
2023-03-22T09:33:43.372Z,89.16
2023-03-22T09:36:12.081Z,87.32
2023-03-22T09:38:42.050Z,86.15
2023-03-22T09:41:19.410Z,85.93
2023-03-22T09:43:58.271Z,86.40
2023-03-22T09:46:31.527Z,86.43
2023-03-22T09:49:00.334Z,85.82
2023-03-22T09:51:42.600Z,85.32
2023-03-22T09:54:30.933Z,86.50
2023-03-22T09:57:24.892Z,84.97
2023-03-22T10:00:20.977Z,85.20
2023-03-22T10:03:01.777Z,83.02
2023-03-22T10:05:41.994Z,83.76
2023-03-22T10:08:29.293Z,84.16
2023-03-22T10:10:58.899Z,83.83
2023-03-22T10:13:37.024Z,82.78
2023-03-22T10:16:07.680Z,82.51
2023-03-22T10:18:41.499Z,82.22
2023-03-22T10:21:15.906Z,81.96
2023-03-22T10:23:53.414Z,78.46
2023-03-22T10:26:34.835Z,76.98
2023-03-22T10:29:09.788Z,76.06
2023-03-22T10:31:38.845Z,77.45
2023-03-22T10:34:20.884Z,77.75
2023-03-22T10:36:50.996Z,79.13
2023-03-22T10:39:36.385Z,80.03
2023-03-22T10:42:08.595Z,79.17
2023-03-22T10:44:43.653Z,79.18
2023-03-22T10:47:12.743Z,79.69
2023-03-22T10:49:44.740Z,78.21
2023-03-22T10:59:56.661Z,76.44
2023-03-22T11:02:29.828Z,73.92
2023-03-22T11:05:03.655Z,74.80
2023-03-22T11:07:37.214Z,74.52
2023-03-22T11:10:08.585Z,72.58
2023-03-22T11:12:41.499Z,72.63
2023-03-22T11:15:31.939Z,72.75
2023-03-22T11:18:06.895Z,71.69
2023-03-22T11:20:36.021Z,72.66
2023-03-22T11:23:05.634Z,72.48
2023-03-22T11:25:37.205Z,71.54
2023-03-22T11:28:09.608Z,68.71
2023-03-22T11:30:38.595Z,68.42
2023-03-22T11:33:07.260Z,70.22
2023-03-22T11:35:38.403Z,70.36
2023-03-22T11:38:07.639Z,69.70
2023-03-22T11:40:49.260Z,70.16
2023-03-22T11:43:23.369Z,70.95
2023-03-22T11:45:56.414Z,71.43
2023-03-22T11:48:29.795Z,71.43
2023-03-22T11:51:09.687Z,69.65
2023-03-22T11:53:39.677Z,69.55
2023-03-22T11:56:10.439Z,69.28
2023-03-22T11:58:52.455Z,69.19
2023-03-22T12:01:39.597Z,68.54
2023-03-22T12:04:12.374Z,67.13
2023-03-22T12:06:44.121Z,65.56
2023-03-22T12:09:32.624Z,65.01
2023-03-22T12:12:02.400Z,67.06
2023-03-22T12:14:59.825Z,67.44
2023-03-22T12:17:40.976Z,67.46
2023-03-22T12:20:17.904Z,66.24
2023-03-22T12:22:51.229Z,65.38
2023-03-22T12:25:25.292Z,64.68
2023-03-22T12:28:00.655Z,65.34
2023-03-22T12:30:37.281Z,66.66
2023-03-22T12:33:10.284Z,66.88
2023-03-22T12:35:41.787Z,68.47
2023-03-22T12:38:13.925Z,67.06
2023-03-22T12:40:43.390Z,67.82
2023-03-22T12:43:16.016Z,68.27
2023-03-22T12:45:50.247Z,68.73
2023-03-22T12:48:26.267Z,67.61
2023-03-22T12:50:57.501Z,67.83
2023-03-22T12:53:28.874Z,67.04
2023-03-22T12:55:56.996Z,67.41
2023-03-22T12:58:27.639Z,67.72
2023-03-22T13:01:11.198Z,67.92
2023-03-22T13:03:45.080Z,66.52
2023-03-22T13:06:32.932Z,66.14
2023-03-22T13:09:20.457Z,66.17
2023-03-22T13:12:16.676Z,66.06
2023-03-22T13:14:52.728Z,67.40
2023-03-22T13:17:23.965Z,66.69
2023-03-22T13:20:11.616Z,65.63
2023-03-22T13:22:42.839Z,66.63
2023-03-22T13:25:13.014Z,67.52
2023-03-22T13:27:50.110Z,66.55
2023-03-22T13:30:26.243Z,66.46
2023-03-22T13:33:03.418Z,66.18
2023-03-22T13:35:48.812Z,65.60
2023-03-22T13:38:22.067Z,66.58
2023-03-22T13:40:56.599Z,67.24
2023-03-22T13:43:27.764Z,67.08
2023-03-22T13:46:17.422Z,65.90
2023-03-22T13:48:47.284Z,64.63
2023-03-22T13:51:15.822Z,63.75
2023-03-22T13:54:15.200Z,63.48
2023-03-22T13:56:47.922Z,62.87
2023-03-22T13:59:29.710Z,62.54
2023-03-22T14:02:07.714Z,62.48
2023-03-22T14:04:42.521Z,61.80
2023-03-22T14:07:26.517Z,62.33
2023-03-22T14:10:28.646Z,62.34
2023-03-22T14:13:12.035Z,62.72
2023-03-22T14:15:42.623Z,61.84
2023-03-22T14:18:26.865Z,62.47
2023-03-22T14:21:03.933Z,62.10
